sensor_id;sensor_type;location;lat;lon;timestamp;temperature;humidity
26599;DHT22;14240;51.064;16.612;2023-07-08T00:00:24;17.80;95.90
26599;DHT22;14240;51.064;16.612;2023-07-08T00:02:50;17.60;96.20
26599;DHT22;14240;51.064;16.612;2023-07-08T00:05:19;17.60;96.40
26599;DHT22;14240;51.064;16.612;2023-07-08T00:07:45;17.50;96.50
26599;DHT22;14240;51.064;16.612;2023-07-08T00:10:18;17.50;96.70
26599;DHT22;14240;51.064;16.612;2023-07-08T00:12:46;17.40;96.80
26599;DHT22;14240;51.064;16.612;2023-07-08T00:15:13;17.40;96.90
26599;DHT22;14240;51.064;16.612;2023-07-08T00:17:39;17.30;97.20
26599;DHT22;14240;51.064;16.612;2023-07-08T00:20:21;17.30;97.30
26599;DHT22;14240;51.064;16.612;2023-07-08T00:22:48;17.30;97.50
26599;DHT22;14240;51.064;16.612;2023-07-08T00:25:17;17.20;97.40
26599;DHT22;14240;51.064;16.612;2023-07-08T00:27:45;17.20;97.50
26599;DHT22;14240;51.064;16.612;2023-07-08T00:30:29;17.20;97.20
26599;DHT22;14240;51.064;16.612;2023-07-08T00:32:56;17.10;97.50
26599;DHT22;14240;51.064;16.612;2023-07-08T00:37:59;17.00;97.80
26599;DHT22;14240;51.064;16.612;2023-07-08T00:40:32;16.90;97.80
26599;DHT22;14240;51.064;16.612;2023-07-08T00:43:02;16.90;98.00
26599;DHT22;14240;51.064;16.612;2023-07-08T00:48:11;17.00;98.20
26599;DHT22;14240;51.064;16.612;2023-07-08T00:50:37;17.00;98.30
26599;DHT22;14240;51.064;16.612;2023-07-08T00:55:46;17.00;98.40
26599;DHT22;14240;51.064;16.612;2023-07-08T00:58:12;17.00;98.70
26599;DHT22;14240;51.064;16.612;2023-07-08T01:00:38;17.00;98.40
26599;DHT22;14240;51.064;16.612;2023-07-08T01:03:03;17.00;98.40
26599;DHT22;14240;51.064;16.612;2023-07-08T01:05:29;17.00;98.50
26599;DHT22;14240;51.064;16.612;2023-07-08T01:07:58;16.90;98.60
26599;DHT22;14240;51.064;16.612;2023-07-08T01:10:30;16.90;98.70
26599;DHT22;14240;51.064;16.612;2023-07-08T01:12:59;16.90;98.70
26599;DHT22;14240;51.064;16.612;2023-07-08T01:15:27;16.90;98.70
26599;DHT22;14240;51.064;16.612;2023-07-08T01:17:55;16.90;98.50
26599;DHT22;14240;51.064;16.612;2023-07-08T01:20:21;16.90;98.60
26599;DHT22;14240;51.064;16.612;2023-07-08T01:22:47;17.00;98.60
26599;DHT22;14240;51.064;16.612;2023-07-08T01:25:13;17.00;98.60
26599;DHT22;14240;51.064;16.612;2023-07-08T01:27:43;17.00;98.90
26599;DHT22;14240;51.064;16.612;2023-07-08T01:30:11;17.10;98.60
26599;DHT22;14240;51.064;16.612;2023-07-08T01:32:43;17.10;98.50
26599;DHT22;14240;51.064;16.612;2023-07-08T01:35:12;17.10;98.40
26599;DHT22;14240;51.064;16.612;2023-07-08T01:37:44;17.10;98.50
26599;DHT22;14240;51.064;16.612;2023-07-08T01:42:41;17.20;98.50
26599;DHT22;14240;51.064;16.612;2023-07-08T01:45:14;17.10;98.50
26599;DHT22;14240;51.064;16.612;2023-07-08T01:47:41;17.10;98.40
26599;DHT22;14240;51.064;16.612;2023-07-08T01:50:09;17.10;98.40
26599;DHT22;14240;51.064;16.612;2023-07-08T01:52:36;17.10;98.30
26599;DHT22;14240;51.064;16.612;2023-07-08T01:55:03;17.20;98.30
26599;DHT22;14240;51.064;16.612;2023-07-08T01:57:28;17.10;98.30
26599;DHT22;14240;51.064;16.612;2023-07-08T01:59:54;17.10;98.30
26599;DHT22;14240;51.064;16.612;2023-07-08T02:02:20;17.20;98.40
26599;DHT22;14240;51.064;16.612;2023-07-08T02:04:45;17.10;98.30
26599;DHT22;14240;51.064;16.612;2023-07-08T02:07:11;17.20;98.40
26599;DHT22;14240;51.064;16.612;2023-07-08T02:09:37;17.10;98.30
26599;DHT22;14240;51.064;16.612;2023-07-08T02:12:03;17.10;98.30
26599;DHT22;14240;51.064;16.612;2023-07-08T02:14:28;17.10;98.30
26599;DHT22;14240;51.064;16.612;2023-07-08T02:16:54;17.10;98.40
26599;DHT22;14240;51.064;16.612;2023-07-08T02:19:20;17.10;98.40
26599;DHT22;14240;51.064;16.612;2023-07-08T02:21:47;17.00;98.30
26599;DHT22;14240;51.064;16.612;2023-07-08T02:24:13;17.00;98.30
26599;DHT22;14240;51.064;16.612;2023-07-08T02:26:42;17.00;98.40
26599;DHT22;14240;51.064;16.612;2023-07-08T02:29:07;17.00;98.30
26599;DHT22;14240;51.064;16.612;2023-07-08T02:31:33;17.00;98.30
26599;DHT22;14240;51.064;16.612;2023-07-08T02:33:59;16.90;98.30
26599;DHT22;14240;51.064;16.612;2023-07-08T02:36:26;16.90;98.30
26599;DHT22;14240;51.064;16.612;2023-07-08T02:38:52;16.90;98.10
26599;DHT22;14240;51.064;16.612;2023-07-08T02:41:18;16.90;98.20
26599;DHT22;14240;51.064;16.612;2023-07-08T02:43:44;16.90;98.30
26599;DHT22;14240;51.064;16.612;2023-07-08T02:46:09;16.90;98.40
26599;DHT22;14240;51.064;16.612;2023-07-08T02:48:35;16.90;98.40
26599;DHT22;14240;51.064;16.612;2023-07-08T02:51:02;16.90;98.40
26599;DHT22;14240;51.064;16.612;2023-07-08T02:53:28;16.90;98.50
26599;DHT22;14240;51.064;16.612;2023-07-08T02:55:54;16.90;98.50
26599;DHT22;14240;51.064;16.612;2023-07-08T02:58:20;16.90;98.50
26599;DHT22;14240;51.064;16.612;2023-07-08T03:00:50;16.90;98.60
26599;DHT22;14240;51.064;16.612;2023-07-08T03:03:16;16.90;98.70
26599;DHT22;14240;51.064;16.612;2023-07-08T03:05:42;16.90;98.70
26599;DHT22;14240;51.064;16.612;2023-07-08T03:08:07;16.80;98.70
26599;DHT22;14240;51.064;16.612;2023-07-08T03:10:33;16.70;98.80
26599;DHT22;14240;51.064;16.612;2023-07-08T03:12:59;16.70;99.10
26599;DHT22;14240;51.064;16.612;2023-07-08T03:15:24;16.60;99.00
26599;DHT22;14240;51.064;16.612;2023-07-08T03:17:50;16.60;99.00
26599;DHT22;14240;51.064;16.612;2023-07-08T03:20:19;16.50;99.00
26599;DHT22;14240;51.064;16.612;2023-07-08T03:22:44;16.40;99.00
26599;DHT22;14240;51.064;16.612;2023-07-08T03:25:10;16.30;99.10
26599;DHT22;14240;51.064;16.612;2023-07-08T03:27:36;16.30;99.40
26599;DHT22;14240;51.064;16.612;2023-07-08T03:30:01;16.20;99.40
26599;DHT22;14240;51.064;16.612;2023-07-08T03:32:29;16.20;99.40
26599;DHT22;14240;51.064;16.612;2023-07-08T03:34:55;16.20;99.10
26599;DHT22;14240;51.064;16.612;2023-07-08T03:37:20;16.00;99.50
26599;DHT22;14240;51.064;16.612;2023-07-08T03:39:46;16.00;99.70
26599;DHT22;14240;51.064;16.612;2023-07-08T03:42:12;15.90;99.80
26599;DHT22;14240;51.064;16.612;2023-07-08T03:44:37;15.90;99.90
26599;DHT22;14240;51.064;16.612;2023-07-08T03:47:03;15.80;99.90
26599;DHT22;14240;51.064;16.612;2023-07-08T03:49:29;15.80;99.90
26599;DHT22;14240;51.064;16.612;2023-07-08T03:51:55;15.80;99.90
26599;DHT22;14240;51.064;16.612;2023-07-08T03:54:22;15.80;99.90
26599;DHT22;14240;51.064;16.612;2023-07-08T03:56:49;15.80;99.90
26599;DHT22;14240;51.064;16.612;2023-07-08T03:59:15;15.80;99.90
26599;DHT22;14240;51.064;16.612;2023-07-08T04:01:41;15.80;99.90
26599;DHT22;14240;51.064;16.612;2023-07-08T04:04:09;15.80;99.90
26599;DHT22;14240;51.064;16.612;2023-07-08T04:06:36;15.80;99.90
26599;DHT22;14240;51.064;16.612;2023-07-08T04:09:02;15.80;99.90
26599;DHT22;14240;51.064;16.612;2023-07-08T04:11:28;15.80;99.90
26599;DHT22;14240;51.064;16.612;2023-07-08T04:13:54;15.80;99.90
26599;DHT22;14240;51.064;16.612;2023-07-08T04:16:22;15.80;99.90
26599;DHT22;14240;51.064;16.612;2023-07-08T04:18:48;15.80;99.90
26599;DHT22;14240;51.064;16.612;2023-07-08T04:21:17;15.80;99.90
26599;DHT22;14240;51.064;16.612;2023-07-08T04:23:43;15.80;99.90
26599;DHT22;14240;51.064;16.612;2023-07-08T04:26:09;15.90;99.90
26599;DHT22;14240;51.064;16.612;2023-07-08T04:28:36;15.90;99.90
26599;DHT22;14240;51.064;16.612;2023-07-08T04:31:02;16.00;99.90
26599;DHT22;14240;51.064;16.612;2023-07-08T04:33:29;16.00;99.90
26599;DHT22;14240;51.064;16.612;2023-07-08T04:35:55;16.10;99.90
26599;DHT22;14240;51.064;16.612;2023-07-08T04:38:23;16.10;99.90
26599;DHT22;14240;51.064;16.612;2023-07-08T04:40:50;16.20;99.90
26599;DHT22;14240;51.064;16.612;2023-07-08T04:43:17;16.30;99.90
26599;DHT22;14240;51.064;16.612;2023-07-08T04:45:45;16.30;99.90
26599;DHT22;14240;51.064;16.612;2023-07-08T04:48:13;16.50;99.90
26599;DHT22;14240;51.064;16.612;2023-07-08T04:50:41;16.50;99.90
26599;DHT22;14240;51.064;16.612;2023-07-08T04:53:07;17.30;99.90
26599;DHT22;14240;51.064;16.612;2023-07-08T04:55:33;16.80;99.90
26599;DHT22;14240;51.064;16.612;2023-07-08T04:57:59;16.90;99.90
26599;DHT22;14240;51.064;16.612;2023-07-08T05:00:27;17.00;99.90
26599;DHT22;14240;51.064;16.612;2023-07-08T05:02:53;17.10;99.90
26599;DHT22;14240;51.064;16.612;2023-07-08T05:05:19;17.30;99.90
26599;DHT22;14240;51.064;16.612;2023-07-08T05:07:45;17.40;99.90
26599;DHT22;14240;51.064;16.612;2023-07-08T05:10:11;17.50;99.90
26599;DHT22;14240;51.064;16.612;2023-07-08T05:12:37;17.70;99.90
26599;DHT22;14240;51.064;16.612;2023-07-08T05:15:03;17.80;99.90
26599;DHT22;14240;51.064;16.612;2023-07-08T05:17:30;17.90;99.90
26599;DHT22;14240;51.064;16.612;2023-07-08T05:19:55;18.10;99.90
26599;DHT22;14240;51.064;16.612;2023-07-08T05:22:24;18.20;99.90
26599;DHT22;14240;51.064;16.612;2023-07-08T05:24:52;18.30;99.90
26599;DHT22;14240;51.064;16.612;2023-07-08T05:27:21;18.50;99.90
26599;DHT22;14240;51.064;16.612;2023-07-08T05:29:47;18.60;99.90
26599;DHT22;14240;51.064;16.612;2023-07-08T05:32:13;18.70;99.90
26599;DHT22;14240;51.064;16.612;2023-07-08T05:34:39;18.80;99.90
26599;DHT22;14240;51.064;16.612;2023-07-08T05:37:04;19.00;99.90
26599;DHT22;14240;51.064;16.612;2023-07-08T05:39:31;19.20;99.90
26599;DHT22;14240;51.064;16.612;2023-07-08T05:41:56;19.30;99.90
26599;DHT22;14240;51.064;16.612;2023-07-08T05:44:22;19.40;99.90
26599;DHT22;14240;51.064;16.612;2023-07-08T05:46:48;19.60;99.90
26599;DHT22;14240;51.064;16.612;2023-07-08T05:49:14;19.80;99.90
26599;DHT22;14240;51.064;16.612;2023-07-08T05:51:40;19.90;99.90
26599;DHT22;14240;51.064;16.612;2023-07-08T05:54:06;20.00;99.90
26599;DHT22;14240;51.064;16.612;2023-07-08T05:56:32;20.20;99.90
26599;DHT22;14240;51.064;16.612;2023-07-08T05:58:58;20.30;99.90
26599;DHT22;14240;51.064;16.612;2023-07-08T06:01:23;20.40;99.90
26599;DHT22;14240;51.064;16.612;2023-07-08T06:03:49;20.60;99.90
26599;DHT22;14240;51.064;16.612;2023-07-08T06:06:15;20.70;99.90
26599;DHT22;14240;51.064;16.612;2023-07-08T06:08:41;20.90;99.90
26599;DHT22;14240;51.064;16.612;2023-07-08T06:11:07;21.00;99.90
26599;DHT22;14240;51.064;16.612;2023-07-08T06:13:32;21.20;99.90
26599;DHT22;14240;51.064;16.612;2023-07-08T06:15:58;21.30;99.90
26599;DHT22;14240;51.064;16.612;2023-07-08T06:18:24;21.50;99.90
26599;DHT22;14240;51.064;16.612;2023-07-08T06:20:56;21.60;99.90
26599;DHT22;14240;51.064;16.612;2023-07-08T06:23:23;21.70;99.90
26599;DHT22;14240;51.064;16.612;2023-07-08T06:25:50;22.00;99.90
26599;DHT22;14240;51.064;16.612;2023-07-08T06:28:16;22.10;99.90
26599;DHT22;14240;51.064;16.612;2023-07-08T06:30:41;22.30;99.90
26599;DHT22;14240;51.064;16.612;2023-07-08T06:33:07;22.50;99.90
26599;DHT22;14240;51.064;16.612;2023-07-08T06:35:33;22.70;99.50
26599;DHT22;14240;51.064;16.612;2023-07-08T06:37:59;22.80;98.80
26599;DHT22;14240;51.064;16.612;2023-07-08T06:40:24;23.00;98.50
26599;DHT22;14240;51.064;16.612;2023-07-08T06:42:50;23.10;98.00
26599;DHT22;14240;51.064;16.612;2023-07-08T06:45:16;23.30;97.10
26599;DHT22;14240;51.064;16.612;2023-07-08T06:47:41;23.40;96.30
26599;DHT22;14240;51.064;16.612;2023-07-08T06:50:07;23.50;95.80
26599;DHT22;14240;51.064;16.612;2023-07-08T06:52:33;23.70;94.60
26599;DHT22;14240;51.064;16.612;2023-07-08T06:55:07;23.80;94.30
26599;DHT22;14240;51.064;16.612;2023-07-08T06:57:33;24.00;93.70
26599;DHT22;14240;51.064;16.612;2023-07-08T06:59:59;24.10;93.60
26599;DHT22;14240;51.064;16.612;2023-07-08T07:02:26;24.20;93.60
26599;DHT22;14240;51.064;16.612;2023-07-08T07:04:52;24.40;92.80
26599;DHT22;14240;51.064;16.612;2023-07-08T07:07:17;24.60;93.00
26599;DHT22;14240;51.064;16.612;2023-07-08T07:09:43;24.70;92.40
26599;DHT22;14240;51.064;16.612;2023-07-08T07:12:09;24.80;92.20
26599;DHT22;14240;51.064;16.612;2023-07-08T07:14:35;25.00;91.80
26599;DHT22;14240;51.064;16.612;2023-07-08T07:17:01;25.10;91.30
26599;DHT22;14240;51.064;16.612;2023-07-08T07:19:26;25.20;91.10
26599;DHT22;14240;51.064;16.612;2023-07-08T07:21:52;25.30;90.20
26599;DHT22;14240;51.064;16.612;2023-07-08T07:24:18;25.50;89.50
26599;DHT22;14240;51.064;16.612;2023-07-08T07:26:44;25.50;87.80
26599;DHT22;14240;51.064;16.612;2023-07-08T07:29:10;25.60;86.40
26599;DHT22;14240;51.064;16.612;2023-07-08T07:31:36;25.70;86.20
26599;DHT22;14240;51.064;16.612;2023-07-08T07:44:41;25.90;85.00
26599;DHT22;14240;51.064;16.612;2023-07-08T07:47:07;27.60;74.80
26599;DHT22;14240;51.064;16.612;2023-07-08T07:49:34;27.40;75.50
26599;DHT22;14240;51.064;16.612;2023-07-08T07:51:59;27.40;76.70
26599;DHT22;14240;51.064;16.612;2023-07-08T07:54:25;27.40;76.70
26599;DHT22;14240;51.064;16.612;2023-07-08T07:56:51;27.40;76.80
26599;DHT22;14240;51.064;16.612;2023-07-08T07:59:17;27.50;75.70
26599;DHT22;14240;51.064;16.612;2023-07-08T08:01:42;27.60;76.90
26599;DHT22;14240;51.064;16.612;2023-07-08T08:04:10;27.70;75.00
26599;DHT22;14240;51.064;16.612;2023-07-08T08:06:35;27.70;74.00
26599;DHT22;14240;51.064;16.612;2023-07-08T08:09:02;27.80;73.10
26599;DHT22;14240;51.064;16.612;2023-07-08T08:11:27;27.80;73.20
26599;DHT22;14240;51.064;16.612;2023-07-08T08:13:53;27.90;73.30
26599;DHT22;14240;51.064;16.612;2023-07-08T08:16:20;28.00;72.90
26599;DHT22;14240;51.064;16.612;2023-07-08T08:18:46;28.10;70.60
26599;DHT22;14240;51.064;16.612;2023-07-08T08:21:11;28.20;69.40
26599;DHT22;14240;51.064;16.612;2023-07-08T08:23:37;28.20;67.70
26599;DHT22;14240;51.064;16.612;2023-07-08T08:26:03;28.20;67.20
26599;DHT22;14240;51.064;16.612;2023-07-08T08:28:28;28.30;68.10
26599;DHT22;14240;51.064;16.612;2023-07-08T08:30:54;28.30;69.20
26599;DHT22;14240;51.064;16.612;2023-07-08T08:33:20;28.40;68.00
26599;DHT22;14240;51.064;16.612;2023-07-08T08:35:46;28.50;67.90
26599;DHT22;14240;51.064;16.612;2023-07-08T08:38:11;28.50;66.60
26599;DHT22;14240;51.064;16.612;2023-07-08T08:40:40;28.60;66.70
26599;DHT22;14240;51.064;16.612;2023-07-08T08:43:10;28.60;66.10
26599;DHT22;14240;51.064;16.612;2023-07-08T08:45:47;28.70;65.10
26599;DHT22;14240;51.064;16.612;2023-07-08T08:48:16;28.70;64.70
26599;DHT22;14240;51.064;16.612;2023-07-08T08:50:58;28.70;64.40
26599;DHT22;14240;51.064;16.612;2023-07-08T08:53:26;28.80;65.90
26599;DHT22;14240;51.064;16.612;2023-07-08T08:58:46;28.90;65.20
26599;DHT22;14240;51.064;16.612;2023-07-08T09:01:15;29.00;64.90
26599;DHT22;14240;51.064;16.612;2023-07-08T09:03:52;29.00;64.00
26599;DHT22;14240;51.064;16.612;2023-07-08T09:06:27;29.10;63.80
26599;DHT22;14240;51.064;16.612;2023-07-08T09:08:54;29.20;62.50
26599;DHT22;14240;51.064;16.612;2023-07-08T09:11:39;29.30;62.10
26599;DHT22;14240;51.064;16.612;2023-07-08T09:14:20;29.30;62.80
26599;DHT22;14240;51.064;16.612;2023-07-08T09:16:50;29.40;62.00
26599;DHT22;14240;51.064;16.612;2023-07-08T09:19:24;29.40;62.00
26599;DHT22;14240;51.064;16.612;2023-07-08T09:24:53;29.60;61.20
26599;DHT22;14240;51.064;16.612;2023-07-08T09:27:22;29.60;60.50
26599;DHT22;14240;51.064;16.612;2023-07-08T09:29:47;29.70;60.80
26599;DHT22;14240;51.064;16.612;2023-07-08T09:32:24;29.80;59.70
26599;DHT22;14240;51.064;16.612;2023-07-08T09:34:53;29.80;60.20
26599;DHT22;14240;51.064;16.612;2023-07-08T09:37:25;29.90;60.60
26599;DHT22;14240;51.064;16.612;2023-07-08T09:39:52;29.90;59.00
26599;DHT22;14240;51.064;16.612;2023-07-08T09:42:19;29.90;58.60
26599;DHT22;14240;51.064;16.612;2023-07-08T09:44:46;30.00;58.80
26599;DHT22;14240;51.064;16.612;2023-07-08T09:47:27;30.00;58.90
26599;DHT22;14240;51.064;16.612;2023-07-08T09:49:58;30.10;58.90
26599;DHT22;14240;51.064;16.612;2023-07-08T09:52:24;30.20;58.40
26599;DHT22;14240;51.064;16.612;2023-07-08T09:54:50;30.20;57.80
26599;DHT22;14240;51.064;16.612;2023-07-08T09:57:25;30.20;57.50
26599;DHT22;14240;51.064;16.612;2023-07-08T10:00:00;30.20;57.70
26599;DHT22;14240;51.064;16.612;2023-07-08T10:02:46;30.20;57.80
26599;DHT22;14240;51.064;16.612;2023-07-08T10:07:53;30.30;56.80
26599;DHT22;14240;51.064;16.612;2023-07-08T10:10:34;30.30;56.50
26599;DHT22;14240;51.064;16.612;2023-07-08T10:13:06;30.30;58.50
26599;DHT22;14240;51.064;16.612;2023-07-08T10:15:40;30.30;58.90
26599;DHT22;14240;51.064;16.612;2023-07-08T10:18:17;30.40;59.80
26599;DHT22;14240;51.064;16.612;2023-07-08T10:21:13;30.50;57.70
26599;DHT22;14240;51.064;16.612;2023-07-08T10:26:33;30.60;59.30
26599;DHT22;14240;51.064;16.612;2023-07-08T10:29:38;30.60;58.00
26599;DHT22;14240;51.064;16.612;2023-07-08T10:40:19;30.80;56.30
26599;DHT22;14240;51.064;16.612;2023-07-08T10:45:29;30.90;56.20
26599;DHT22;14240;51.064;16.612;2023-07-08T10:48:16;30.90;57.30
26599;DHT22;14240;51.064;16.612;2023-07-08T10:54:24;31.00;55.40
26599;DHT22;14240;51.064;16.612;2023-07-08T10:57:02;31.10;55.00
26599;DHT22;14240;51.064;16.612;2023-07-08T11:05:22;31.30;54.10
26599;DHT22;14240;51.064;16.612;2023-07-08T11:12:51;31.40;53.60
26599;DHT22;14240;51.064;16.612;2023-07-08T11:15:21;31.40;53.60
26599;DHT22;14240;51.064;16.612;2023-07-08T11:18:01;31.40;53.60
26599;DHT22;14240;51.064;16.612;2023-07-08T11:20:52;31.50;52.80
26599;DHT22;14240;51.064;16.612;2023-07-08T11:23:38;31.60;53.90
26599;DHT22;14240;51.064;16.612;2023-07-08T11:26:37;31.60;56.10
26599;DHT22;14240;51.064;16.612;2023-07-08T11:29:22;31.60;54.10
26599;DHT22;14240;51.064;16.612;2023-07-08T11:31:49;31.60;52.50
26599;DHT22;14240;51.064;16.612;2023-07-08T11:34:17;31.70;53.70
26599;DHT22;14240;51.064;16.612;2023-07-08T11:36:45;31.70;53.60
26599;DHT22;14240;51.064;16.612;2023-07-08T11:39:41;31.70;53.50
26599;DHT22;14240;51.064;16.612;2023-07-08T11:44:43;31.70;53.40
26599;DHT22;14240;51.064;16.612;2023-07-08T11:47:22;31.80;55.50
26599;DHT22;14240;51.064;16.612;2023-07-08T11:49:52;31.80;54.70
26599;DHT22;14240;51.064;16.612;2023-07-08T11:52:20;31.80;54.20
26599;DHT22;14240;51.064;16.612;2023-07-08T11:54:48;31.80;53.10
26599;DHT22;14240;51.064;16.612;2023-07-08T11:57:19;31.80;53.90
26599;DHT22;14240;51.064;16.612;2023-07-08T12:02:49;31.90;54.00
26599;DHT22;14240;51.064;16.612;2023-07-08T12:05:15;31.80;53.50
26599;DHT22;14240;51.064;16.612;2023-07-08T12:07:42;31.80;53.70
26599;DHT22;14240;51.064;16.612;2023-07-08T12:10:16;31.80;53.10
26599;DHT22;14240;51.064;16.612;2023-07-08T12:12:44;31.80;53.00
26599;DHT22;14240;51.064;16.612;2023-07-08T12:17:41;32.00;52.80
26599;DHT22;14240;51.064;16.612;2023-07-08T12:20:27;32.00;52.10
26599;DHT22;14240;51.064;16.612;2023-07-08T12:22:53;32.00;51.30
26599;DHT22;14240;51.064;16.612;2023-07-08T12:25:21;32.00;52.50
26599;DHT22;14240;51.064;16.612;2023-07-08T12:27:47;32.00;51.90
26599;DHT22;14240;51.064;16.612;2023-07-08T12:30:15;32.10;52.20
26599;DHT22;14240;51.064;16.612;2023-07-08T12:32:42;32.10;52.70
26599;DHT22;14240;51.064;16.612;2023-07-08T12:35:14;32.20;51.20
26599;DHT22;14240;51.064;16.612;2023-07-08T12:37:42;32.10;51.90
26599;DHT22;14240;51.064;16.612;2023-07-08T12:40:10;32.10;50.70
26599;DHT22;14240;51.064;16.612;2023-07-08T12:42:36;32.10;52.00
26599;DHT22;14240;51.064;16.612;2023-07-08T12:45:02;32.20;51.90
26599;DHT22;14240;51.064;16.612;2023-07-08T12:47:27;32.20;51.10
26599;DHT22;14240;51.064;16.612;2023-07-08T12:49:53;32.20;51.50
26599;DHT22;14240;51.064;16.612;2023-07-08T12:52:23;32.20;50.60
26599;DHT22;14240;51.064;16.612;2023-07-08T12:54:49;32.20;50.00
26599;DHT22;14240;51.064;16.612;2023-07-08T12:57:16;32.20;50.20
26599;DHT22;14240;51.064;16.612;2023-07-08T12:59:43;32.30;48.70
26599;DHT22;14240;51.064;16.612;2023-07-08T13:02:18;32.30;50.20
26599;DHT22;14240;51.064;16.612;2023-07-08T13:04:50;32.30;50.40
26599;DHT22;14240;51.064;16.612;2023-07-08T13:07:37;32.30;49.80
26599;DHT22;14240;51.064;16.612;2023-07-08T13:10:16;32.30;50.30
26599;DHT22;14240;51.064;16.612;2023-07-08T13:12:43;32.20;50.60
26599;DHT22;14240;51.064;16.612;2023-07-08T13:15:20;32.20;50.30
26599;DHT22;14240;51.064;16.612;2023-07-08T13:17:47;32.20;49.70
26599;DHT22;14240;51.064;16.612;2023-07-08T13:20:16;32.10;50.10
26599;DHT22;14240;51.064;16.612;2023-07-08T13:22:45;32.10;49.00
26599;DHT22;14240;51.064;16.612;2023-07-08T13:25:17;32.10;49.10
26599;DHT22;14240;51.064;16.612;2023-07-08T13:27:54;32.10;48.80
26599;DHT22;14240;51.064;16.612;2023-07-08T13:30:23;32.20;49.10
26599;DHT22;14240;51.064;16.612;2023-07-08T13:32:56;32.20;48.60
26599;DHT22;14240;51.064;16.612;2023-07-08T13:37:48;32.20;50.80
26599;DHT22;14240;51.064;16.612;2023-07-08T13:40:16;32.20;50.80
26599;DHT22;14240;51.064;16.612;2023-07-08T13:42:52;32.20;50.90
26599;DHT22;14240;51.064;16.612;2023-07-08T13:45:27;32.20;49.30
26599;DHT22;14240;51.064;16.612;2023-07-08T13:50:35;32.20;51.10
26599;DHT22;14240;51.064;16.612;2023-07-08T13:53:16;32.20;51.30
26599;DHT22;14240;51.064;16.612;2023-07-08T13:55:42;32.20;50.30
26599;DHT22;14240;51.064;16.612;2023-07-08T13:58:15;32.20;50.00
26599;DHT22;14240;51.064;16.612;2023-07-08T14:00:41;32.20;49.30
26599;DHT22;14240;51.064;16.612;2023-07-08T14:03:11;32.20;49.60
26599;DHT22;14240;51.064;16.612;2023-07-08T14:05:39;32.30;50.90
26599;DHT22;14240;51.064;16.612;2023-07-08T14:08:13;32.30;49.80
26599;DHT22;14240;51.064;16.612;2023-07-08T14:10:39;32.20;48.80
26599;DHT22;14240;51.064;16.612;2023-07-08T14:13:04;32.30;48.70
26599;DHT22;14240;51.064;16.612;2023-07-08T14:15:30;32.20;48.10
26599;DHT22;14240;51.064;16.612;2023-07-08T14:17:59;32.20;48.60
26599;DHT22;14240;51.064;16.612;2023-07-08T14:20:26;32.20;49.00
26599;DHT22;14240;51.064;16.612;2023-07-08T14:22:52;32.20;49.50
26599;DHT22;14240;51.064;16.612;2023-07-08T14:25:19;32.20;49.60
26599;DHT22;14240;51.064;16.612;2023-07-08T14:27:46;32.20;50.20
26599;DHT22;14240;51.064;16.612;2023-07-08T14:33:33;32.10;49.60
26599;DHT22;14240;51.064;16.612;2023-07-08T14:35:59;32.00;49.80
26599;DHT22;14240;51.064;16.612;2023-07-08T14:38:25;32.10;50.00
26599;DHT22;14240;51.064;16.612;2023-07-08T14:40:50;32.00;50.20
26599;DHT22;14240;51.064;16.612;2023-07-08T14:43:26;32.00;50.30
26599;DHT22;14240;51.064;16.612;2023-07-08T14:45:55;31.90;50.20
26599;DHT22;14240;51.064;16.612;2023-07-08T14:48:21;31.80;50.40
26599;DHT22;14240;51.064;16.612;2023-07-08T14:50:47;31.80;50.00
26599;DHT22;14240;51.064;16.612;2023-07-08T14:53:14;31.80;50.90
26599;DHT22;14240;51.064;16.612;2023-07-08T14:55:41;31.70;50.80
26599;DHT22;14240;51.064;16.612;2023-07-08T14:58:08;31.60;50.50
26599;DHT22;14240;51.064;16.612;2023-07-08T15:00:35;31.60;51.10
26599;DHT22;14240;51.064;16.612;2023-07-08T15:03:01;31.60;50.50
26599;DHT22;14240;51.064;16.612;2023-07-08T15:05:28;31.50;50.40
26599;DHT22;14240;51.064;16.612;2023-07-08T15:07:57;31.60;50.50
26599;DHT22;14240;51.064;16.612;2023-07-08T15:10:26;31.60;50.50
26599;DHT22;14240;51.064;16.612;2023-07-08T15:12:53;31.50;50.10
26599;DHT22;14240;51.064;16.612;2023-07-08T15:15:32;31.50;50.20
26599;DHT22;14240;51.064;16.612;2023-07-08T15:17:58;31.50;50.50
26599;DHT22;14240;51.064;16.612;2023-07-08T15:20:25;31.50;50.60
26599;DHT22;14240;51.064;16.612;2023-07-08T15:22:51;31.50;51.50
26599;DHT22;14240;51.064;16.612;2023-07-08T15:25:18;31.50;52.00
26599;DHT22;14240;51.064;16.612;2023-07-08T15:27:48;31.50;51.80
26599;DHT22;14240;51.064;16.612;2023-07-08T15:30:22;31.40;51.10
26599;DHT22;14240;51.064;16.612;2023-07-08T15:32:48;31.40;51.20
26599;DHT22;14240;51.064;16.612;2023-07-08T15:35:17;31.30;51.80
26599;DHT22;14240;51.064;16.612;2023-07-08T15:37:43;31.40;51.30
26599;DHT22;14240;51.064;16.612;2023-07-08T15:40:12;31.40;50.30
26599;DHT22;14240;51.064;16.612;2023-07-08T15:42:38;31.30;51.30
26599;DHT22;14240;51.064;16.612;2023-07-08T15:45:12;31.30;51.30
26599;DHT22;14240;51.064;16.612;2023-07-08T15:47:39;31.30;50.80
26599;DHT22;14240;51.064;16.612;2023-07-08T15:50:13;31.20;51.20
26599;DHT22;14240;51.064;16.612;2023-07-08T15:52:39;31.20;51.60
26599;DHT22;14240;51.064;16.612;2023-07-08T15:55:07;31.10;51.10
26599;DHT22;14240;51.064;16.612;2023-07-08T15:57:36;31.00;51.30
26599;DHT22;14240;51.064;16.612;2023-07-08T16:00:02;31.00;51.50
26599;DHT22;14240;51.064;16.612;2023-07-08T16:02:29;30.90;51.70
26599;DHT22;14240;51.064;16.612;2023-07-08T16:04:57;30.90;50.70
26599;DHT22;14240;51.064;16.612;2023-07-08T16:07:22;30.80;50.60
26599;DHT22;14240;51.064;16.612;2023-07-08T16:09:48;30.80;51.90
26599;DHT22;14240;51.064;16.612;2023-07-08T16:12:19;30.80;51.30
26599;DHT22;14240;51.064;16.612;2023-07-08T16:14:45;30.70;51.60
26599;DHT22;14240;51.064;16.612;2023-07-08T16:17:11;30.70;52.40
26599;DHT22;14240;51.064;16.612;2023-07-08T16:19:37;30.60;52.30
26599;DHT22;14240;51.064;16.612;2023-07-08T16:22:03;30.60;51.10
26599;DHT22;14240;51.064;16.612;2023-07-08T16:24:30;30.50;52.50
26599;DHT22;14240;51.064;16.612;2023-07-08T16:26:56;30.50;52.50
26599;DHT22;14240;51.064;16.612;2023-07-08T16:29:23;30.50;52.50
26599;DHT22;14240;51.064;16.612;2023-07-08T16:31:50;30.50;53.30
26599;DHT22;14240;51.064;16.612;2023-07-08T16:34:17;30.50;52.00
26599;DHT22;14240;51.064;16.612;2023-07-08T16:36:42;30.50;52.50